createdAt,value
2018-04-12T00:00:05.225Z,12.5
2018-04-12T00:01:06.783Z,12.4
2018-04-12T00:02:08.356Z,12.4
2018-04-12T00:03:09.916Z,12.3
2018-04-12T00:04:11.516Z,12.3
2018-04-12T00:05:13.084Z,12.3
2018-04-12T00:06:14.651Z,12.3
2018-04-12T00:07:16.457Z,12.2
2018-04-12T00:08:18.015Z,12.3
2018-04-12T00:09:19.577Z,12.3
2018-04-12T00:10:21.137Z,12.3
2018-04-12T00:11:22.689Z,12.3
2018-04-12T00:12:24.242Z,12.3
2018-04-12T00:13:25.807Z,12.2
2018-04-12T00:14:27.368Z,12.3
2018-04-12T00:15:28.969Z,12.2
2018-04-12T00:16:30.542Z,12.2
2018-04-12T00:17:32.100Z,12.1
2018-04-12T00:18:33.660Z,12.1
2018-04-12T00:19:35.226Z,12.1
2018-04-12T00:20:36.818Z,12.1
2018-04-12T00:21:38.490Z,12.1
2018-04-12T00:22:40.117Z,12.1
2018-04-12T00:23:41.660Z,12.1
2018-04-12T00:24:43.223Z,12.1
2018-04-12T00:25:44.783Z,12.2
2018-04-12T00:26:46.378Z,12.2
2018-04-12T00:27:47.940Z,12.2
2018-04-12T00:28:49.496Z,12.2
2018-04-12T00:29:51.051Z,12.1
2018-04-12T00:30:52.627Z,12.1
2018-04-12T00:31:54.190Z,12.1
2018-04-12T00:32:55.745Z,12.1
2018-04-12T00:33:57.342Z,12.1
2018-04-12T00:34:58.911Z,12.1
2018-04-12T00:36:00.481Z,12.1
2018-04-12T00:37:02.072Z,12.1
2018-04-12T00:38:03.633Z,12.1
2018-04-12T00:39:05.194Z,12.1
2018-04-12T00:40:06.791Z,12.1
2018-04-12T00:41:08.362Z,12.1
2018-04-12T00:42:09.935Z,12.1
2018-04-12T00:43:11.511Z,12.1
2018-04-12T00:44:13.079Z,12.1
2018-04-12T00:45:14.664Z,12.1
2018-04-12T00:46:16.220Z,12.1
2018-04-12T00:47:17.784Z,12.1
2018-04-12T00:48:19.347Z,12.2
2018-04-12T00:49:20.908Z,12.1
2018-04-12T00:50:22.492Z,12.1
2018-04-12T00:51:24.083Z,12.1
2018-04-12T00:52:25.657Z,12.1
2018-04-12T00:53:27.228Z,12.1
2018-04-12T00:54:28.805Z,12.1
2018-04-12T00:55:30.433Z,12.0
2018-04-12T00:56:32.050Z,11.9
2018-04-12T00:57:33.650Z,12.0
2018-04-12T00:58:35.243Z,11.9
2018-04-12T00:59:36.848Z,12.0
2018-04-12T01:00:38.442Z,12.0
2018-04-12T01:01:40.006Z,12.0
2018-04-12T01:02:41.566Z,12.0
2018-04-12T01:03:43.207Z,12.0
2018-04-12T01:04:44.816Z,11.9
2018-04-12T01:05:46.571Z,11.9
2018-04-12T01:06:48.168Z,12.0
2018-04-12T01:07:49.715Z,11.9
2018-04-12T01:08:51.275Z,11.9
2018-04-12T01:09:52.845Z,11.9
2018-04-12T01:10:54.524Z,11.9
2018-04-12T01:11:56.124Z,11.9
2018-04-12T01:12:57.676Z,11.9
2018-04-12T01:13:59.233Z,12.0
2018-04-12T01:15:00.816Z,11.9
2018-04-12T01:16:02.392Z,11.9
2018-04-12T01:17:03.961Z,12.0
2018-04-12T01:18:05.518Z,12.0
2018-04-12T01:19:07.105Z,11.9
2018-04-12T01:20:08.665Z,11.9
2018-04-12T01:21:10.507Z,11.9
2018-04-12T01:22:12.178Z,11.9
2018-04-12T01:23:13.746Z,11.9
2018-04-12T01:24:15.530Z,12.0
2018-04-12T01:25:17.256Z,11.9
2018-04-12T01:26:18.815Z,12.0
2018-04-12T01:27:20.379Z,11.8
2018-04-12T01:28:21.945Z,11.9
2018-04-12T01:29:23.532Z,12.0
2018-04-12T01:30:25.254Z,11.9
2018-04-12T01:31:26.839Z,12.0
2018-04-12T01:32:28.417Z,12.0
2018-04-12T01:33:31.014Z,12.0
2018-04-12T01:34:32.597Z,12.0
2018-04-12T01:35:34.163Z,11.9
2018-04-12T01:36:35.727Z,12.0
2018-04-12T01:37:37.327Z,11.9
2018-04-12T01:38:38.892Z,12.0
2018-04-12T01:39:40.458Z,11.9
2018-04-12T01:40:42.020Z,12.0
2018-04-12T01:41:43.583Z,12.0
2018-04-12T01:42:45.154Z,12.0
2018-04-12T01:43:46.744Z,11.9
2018-04-12T01:44:48.315Z,12.0
2018-04-12T01:45:49.856Z,12.0
2018-04-12T01:46:51.628Z,12.1
2018-04-12T01:47:53.177Z,12.1
2018-04-12T01:48:54.722Z,12.1
2018-04-12T01:49:56.286Z,12.1
2018-04-12T01:50:57.836Z,12.0
2018-04-12T01:51:59.387Z,11.9
2018-04-12T01:53:01.145Z,11.9
2018-04-12T01:54:02.735Z,11.9
2018-04-12T01:55:04.300Z,11.9
2018-04-12T01:56:05.853Z,11.9
2018-04-12T01:57:07.407Z,11.8
2018-04-12T01:58:08.959Z,11.8
2018-04-12T01:59:10.509Z,11.7
2018-04-12T02:00:12.062Z,11.7
2018-04-12T02:01:13.612Z,11.8
2018-04-12T02:02:15.163Z,11.8
2018-04-12T02:03:16.730Z,11.8
2018-04-12T02:04:18.287Z,11.8
2018-04-12T02:05:19.831Z,11.8
2018-04-12T02:06:21.391Z,11.8
2018-04-12T02:07:22.936Z,11.7
2018-04-12T02:08:24.488Z,11.7
2018-04-12T02:09:26.049Z,11.8
2018-04-12T02:10:27.614Z,11.8
2018-04-12T02:11:29.159Z,11.8
2018-04-12T02:12:30.722Z,11.8
2018-04-12T02:13:32.288Z,11.7
2018-04-12T02:14:33.839Z,11.8
2018-04-12T02:15:35.405Z,11.8
2018-04-12T02:16:36.983Z,11.8
2018-04-12T02:17:38.549Z,11.8
2018-04-12T02:18:40.124Z,11.8
2018-04-12T02:19:41.694Z,11.9
2018-04-12T02:20:43.254Z,11.8
2018-04-12T02:21:44.816Z,11.8
2018-04-12T02:22:46.372Z,11.8
2018-04-12T02:23:47.963Z,11.8
2018-04-12T02:24:49.520Z,11.8
2018-04-12T02:25:51.125Z,11.9
2018-04-12T02:26:52.677Z,11.8
2018-04-12T02:27:54.244Z,11.9
2018-04-12T02:28:55.860Z,11.9
2018-04-12T02:29:57.434Z,11.8
2018-04-12T02:30:58.958Z,11.8
2018-04-12T02:32:00.560Z,11.8
2018-04-12T02:33:02.115Z,11.9
2018-04-12T02:34:03.679Z,11.9
2018-04-12T02:35:05.333Z,11.8
2018-04-12T02:36:06.863Z,11.8
2018-04-12T02:37:08.419Z,11.8
2018-04-12T02:38:09.999Z,11.8
2018-04-12T02:39:11.563Z,11.8
2018-04-12T02:40:13.158Z,11.9
2018-04-12T02:41:14.699Z,11.9
2018-04-12T02:42:16.259Z,11.8
2018-04-12T02:43:17.809Z,11.7
2018-04-12T02:44:19.367Z,11.7
2018-04-12T02:45:20.959Z,11.8
2018-04-12T02:46:22.509Z,11.8
2018-04-12T02:47:24.059Z,11.8
2018-04-12T02:48:25.614Z,11.8
2018-04-12T02:49:27.180Z,11.7
2018-04-12T02:50:28.735Z,11.8
2018-04-12T02:51:30.321Z,11.7
2018-04-12T02:52:31.880Z,11.8
2018-04-12T02:53:33.433Z,11.8
2018-04-12T02:54:34.982Z,11.8
2018-04-12T02:55:36.531Z,11.7
2018-04-12T02:56:38.088Z,11.9
2018-04-12T02:57:39.645Z,11.7
2018-04-12T02:58:41.209Z,11.8
2018-04-12T02:59:42.756Z,11.8
2018-04-12T03:00:44.303Z,11.7
2018-04-12T03:01:45.856Z,11.8
2018-04-12T03:02:47.402Z,11.8
2018-04-12T03:03:48.952Z,11.7
2018-04-12T03:04:50.507Z,11.7
2018-04-12T03:05:52.068Z,11.6
2018-04-12T03:06:53.617Z,11.7
2018-04-12T03:07:55.177Z,11.7
2018-04-12T03:08:56.732Z,11.7
2018-04-12T03:09:58.292Z,11.7
2018-04-12T03:10:59.849Z,11.7
2018-04-12T03:12:01.408Z,11.6
2018-04-12T03:13:02.964Z,11.6
2018-04-12T03:14:04.533Z,11.5
2018-04-12T03:15:06.094Z,11.6
2018-04-12T03:16:07.679Z,11.5
2018-04-12T03:17:09.235Z,11.5
2018-04-12T03:18:10.783Z,11.5
2018-04-12T03:19:12.340Z,11.6
2018-04-12T03:20:13.909Z,11.5
2018-04-12T03:21:15.475Z,11.6
2018-04-12T03:22:17.022Z,11.6
2018-04-12T03:23:18.594Z,11.6
2018-04-12T03:24:20.149Z,11.7
2018-04-12T03:25:21.712Z,11.7
2018-04-12T03:26:23.283Z,11.7
2018-04-12T03:27:24.852Z,11.6
2018-04-12T03:28:26.421Z,11.5
2018-04-12T03:29:28.007Z,11.6
2018-04-12T03:30:29.561Z,11.6
2018-04-12T03:31:31.107Z,11.5
2018-04-12T03:32:32.672Z,11.6
2018-04-12T03:33:34.237Z,11.5
2018-04-12T03:34:35.783Z,11.6
2018-04-12T03:35:37.394Z,11.6
2018-04-12T03:36:38.998Z,11.6
2018-04-12T03:37:40.548Z,11.6
2018-04-12T03:38:42.104Z,11.6
2018-04-12T03:39:43.669Z,11.6
2018-04-12T03:40:45.246Z,11.6
2018-04-12T03:41:46.791Z,11.6
2018-04-12T03:42:48.344Z,11.6
2018-04-12T03:43:49.920Z,11.6
2018-04-12T03:44:51.464Z,11.6
2018-04-12T03:45:53.019Z,11.5
2018-04-12T03:46:54.617Z,11.6
2018-04-12T03:47:56.173Z,11.5
2018-04-12T03:48:57.748Z,11.6
2018-04-12T03:49:59.314Z,11.6
2018-04-12T03:51:00.861Z,11.6
2018-04-12T03:52:02.416Z,11.6
2018-04-12T03:53:03.974Z,11.6
2018-04-12T03:54:05.533Z,11.6
2018-04-12T03:55:07.098Z,11.6
2018-04-12T03:56:08.659Z,11.6
2018-04-12T03:57:10.224Z,11.5
2018-04-12T03:58:11.786Z,11.6
2018-04-12T03:59:13.333Z,11.6
2018-04-12T04:00:14.891Z,11.6
2018-04-12T04:01:16.459Z,11.6
2018-04-12T04:02:18.022Z,11.6
2018-04-12T04:03:19.593Z,11.5
2018-04-12T04:04:21.160Z,11.6
2018-04-12T04:05:22.723Z,11.6
2018-04-12T04:06:24.317Z,11.5
2018-04-12T04:07:25.902Z,11.6
2018-04-12T04:08:27.469Z,11.5
2018-04-12T04:09:29.044Z,11.5
2018-04-12T04:10:30.605Z,11.6
2018-04-12T04:11:32.161Z,11.6
2018-04-12T04:12:33.722Z,11.5
2018-04-12T04:13:35.273Z,11.5
2018-04-12T04:14:36.837Z,11.6
2018-04-12T04:15:38.405Z,11.6
2018-04-12T04:16:39.940Z,11.5
2018-04-12T04:17:41.507Z,11.5
2018-04-12T04:18:43.820Z,11.5
2018-04-12T04:19:45.382Z,11.5
2018-04-12T04:20:46.996Z,11.6
2018-04-12T04:21:48.513Z,11.6
2018-04-12T04:22:50.067Z,11.6
2018-04-12T04:23:51.612Z,11.6
2018-04-12T04:24:53.164Z,11.6
2018-04-12T04:25:54.770Z,11.6
2018-04-12T04:26:56.343Z,11.6
2018-04-12T04:27:57.896Z,11.6
2018-04-12T04:28:59.449Z,11.5
2018-04-12T04:30:01.021Z,11.5
2018-04-12T04:31:02.568Z,11.6
2018-04-12T04:32:04.151Z,11.6
2018-04-12T04:33:05.698Z,11.5
2018-04-12T04:34:07.251Z,11.5
2018-04-12T04:35:08.803Z,11.6
2018-04-12T04:36:10.372Z,11.5
2018-04-12T04:37:11.932Z,11.6
2018-04-12T04:38:13.497Z,11.5
2018-04-12T04:39:15.050Z,11.5
2018-04-12T04:40:16.621Z,11.6
2018-04-12T04:41:18.187Z,11.5
2018-04-12T04:42:19.751Z,11.5
2018-04-12T04:43:21.315Z,11.5
2018-04-12T04:44:22.886Z,11.5
2018-04-12T04:45:24.465Z,11.6
2018-04-12T04:46:26.137Z,11.5
2018-04-12T04:47:27.696Z,11.5
2018-04-12T04:48:29.266Z,11.4
2018-04-12T04:49:30.820Z,11.5
2018-04-12T04:50:32.370Z,11.5
2018-04-12T04:51:33.967Z,11.5
2018-04-12T04:52:35.557Z,11.4
2018-04-12T04:53:37.119Z,11.5
2018-04-12T04:54:38.755Z,11.4
2018-04-12T04:55:40.301Z,11.5
2018-04-12T04:56:41.908Z,11.4
2018-04-12T04:57:43.464Z,11.4
2018-04-12T04:58:45.041Z,11.4
2018-04-12T04:59:46.629Z,11.4
2018-04-12T05:00:48.214Z,11.4
2018-04-12T05:01:49.786Z,11.5
2018-04-12T05:02:51.368Z,11.5
2018-04-12T05:03:52.916Z,11.4
2018-04-12T05:04:54.473Z,11.4
2018-04-12T05:05:56.055Z,11.5
2018-04-12T05:06:57.668Z,11.5
2018-04-12T05:07:59.243Z,11.3
2018-04-12T05:09:00.814Z,11.4
2018-04-12T05:10:02.377Z,11.5
2018-04-12T05:11:03.931Z,11.4
2018-04-12T05:12:05.496Z,11.3
2018-04-12T05:13:07.053Z,11.4
2018-04-12T05:14:08.617Z,11.5
2018-04-12T05:15:10.176Z,11.4
2018-04-12T05:16:11.727Z,11.4
2018-04-12T05:17:13.283Z,11.4
2018-04-12T05:18:14.842Z,11.4
2018-04-12T05:19:16.404Z,11.4
2018-04-12T05:20:17.966Z,11.4
2018-04-12T05:21:19.535Z,11.4
2018-04-12T05:22:21.101Z,11.4
2018-04-12T05:23:22.658Z,11.4
2018-04-12T05:24:24.213Z,11.5
2018-04-12T05:25:25.774Z,11.4
2018-04-12T05:26:27.334Z,11.4
2018-04-12T05:27:28.901Z,11.4
2018-04-12T05:28:30.448Z,11.4
2018-04-12T05:29:31.997Z,11.5
2018-04-12T05:30:33.549Z,11.4
2018-04-12T05:31:35.124Z,11.5
2018-04-12T05:32:36.683Z,11.4
2018-04-12T05:33:38.254Z,11.5
2018-04-12T05:34:39.812Z,11.4
2018-04-12T05:35:41.390Z,11.4
2018-04-12T05:36:43.078Z,11.4
2018-04-12T05:37:44.651Z,11.3
2018-04-12T05:38:46.201Z,11.4
2018-04-12T05:39:47.760Z,11.4
2018-04-12T05:40:49.325Z,11.5
2018-04-12T05:41:50.883Z,11.4
2018-04-12T05:42:52.437Z,11.4
2018-04-12T05:43:54.028Z,11.5
2018-04-12T05:44:55.608Z,11.4
2018-04-12T05:45:57.187Z,11.4
2018-04-12T05:46:58.744Z,11.5
2018-04-12T05:48:00.320Z,11.4
2018-04-12T05:49:01.878Z,11.5
2018-04-12T05:50:03.442Z,11.3
2018-04-12T05:51:05.016Z,11.5
2018-04-12T05:52:06.576Z,11.5
2018-04-12T05:53:08.124Z,11.4
2018-04-12T05:54:09.681Z,11.5
2018-04-12T05:55:11.245Z,11.5
2018-04-12T05:56:12.824Z,11.5
2018-04-12T05:57:14.369Z,11.5
2018-04-12T05:58:15.946Z,11.5
2018-04-12T05:59:17.521Z,11.5
2018-04-12T06:00:19.089Z,11.5
2018-04-12T06:01:20.677Z,11.5
2018-04-12T06:02:22.253Z,11.6
2018-04-12T06:03:23.833Z,11.5
2018-04-12T06:04:25.394Z,11.6
2018-04-12T06:05:26.952Z,11.5
2018-04-12T06:06:28.528Z,11.5
2018-04-12T06:07:30.102Z,11.5
2018-04-12T06:08:31.662Z,11.5
2018-04-12T06:09:33.246Z,11.6
2018-04-12T06:10:34.805Z,11.6
2018-04-12T06:11:36.358Z,11.5
2018-04-12T06:12:37.945Z,11.5
2018-04-12T06:13:39.493Z,11.5
2018-04-12T06:14:41.058Z,11.5
2018-04-12T06:15:42.632Z,11.5
2018-04-12T06:16:44.227Z,11.6
2018-04-12T06:17:45.788Z,11.5
2018-04-12T06:18:47.357Z,11.6
2018-04-12T06:19:48.922Z,11.6
2018-04-12T06:20:50.538Z,11.6
2018-04-12T06:21:52.101Z,11.6
2018-04-12T06:22:53.672Z,11.6
2018-04-12T06:23:55.274Z,11.6
2018-04-12T06:24:56.834Z,11.6
2018-04-12T06:25:58.398Z,11.5
2018-04-12T06:26:59.962Z,11.5
2018-04-12T06:28:01.525Z,11.6
2018-04-12T06:29:03.098Z,11.6
2018-04-12T06:30:04.658Z,11.6
2018-04-12T06:31:06.231Z,11.6
2018-04-12T06:32:07.832Z,11.6
2018-04-12T06:33:09.443Z,11.6
2018-04-12T06:34:11.044Z,11.6
2018-04-12T06:35:12.618Z,11.6
2018-04-12T06:36:14.290Z,11.6
2018-04-12T06:37:15.860Z,11.6
2018-04-12T06:38:17.411Z,11.5
2018-04-12T06:39:19.020Z,11.6
2018-04-12T06:40:20.603Z,11.7
2018-04-12T06:41:22.171Z,11.6
2018-04-12T06:42:23.782Z,11.5
2018-04-12T06:43:25.339Z,11.6
2018-04-12T06:44:26.915Z,11.5
2018-04-12T06:45:28.496Z,11.6
2018-04-12T06:46:30.171Z,11.6
2018-04-12T06:47:31.808Z,11.6
2018-04-12T06:48:33.407Z,11.6
2018-04-12T06:49:35.245Z,11.6
2018-04-12T06:50:36.828Z,11.5
2018-04-12T06:51:38.410Z,11.6
2018-04-12T06:52:39.976Z,11.5
2018-04-12T06:53:41.538Z,11.5
2018-04-12T06:54:43.116Z,11.5
2018-04-12T06:55:44.689Z,11.5
2018-04-12T06:56:46.288Z,11.6
2018-04-12T06:57:47.903Z,11.6
2018-04-12T06:58:49.550Z,11.6
2018-04-12T06:59:51.254Z,11.6
2018-04-12T07:00:52.833Z,11.6
2018-04-12T07:01:54.405Z,11.5
2018-04-12T07:02:56.016Z,11.5
2018-04-12T07:03:57.576Z,11.6
2018-04-12T07:04:59.160Z,11.6
2018-04-12T07:06:00.787Z,11.6
2018-04-12T07:07:02.401Z,11.6
2018-04-12T07:08:03.969Z,11.6
2018-04-12T07:09:05.537Z,11.6
2018-04-12T07:10:07.254Z,11.5
2018-04-12T07:11:08.821Z,11.6
2018-04-12T07:12:10.730Z,11.5
2018-04-12T07:13:12.295Z,11.6
2018-04-12T07:14:13.888Z,11.6
2018-04-12T07:15:15.446Z,11.5
2018-04-12T07:16:17.057Z,11.5
2018-04-12T07:17:18.667Z,11.6
2018-04-12T07:18:20.263Z,11.6
2018-04-12T07:19:21.832Z,11.5
2018-04-12T07:20:23.579Z,11.6
2018-04-12T07:21:25.219Z,11.5
2018-04-12T07:22:26.810Z,11.7
2018-04-12T07:23:28.387Z,11.7
2018-04-12T07:24:30.107Z,11.8
2018-04-12T07:25:31.774Z,11.8
2018-04-12T07:26:33.413Z,11.8
2018-04-12T07:27:35.026Z,11.8
2018-04-12T07:28:36.736Z,11.7
2018-04-12T07:29:38.317Z,11.8
2018-04-12T07:30:39.925Z,11.7
2018-04-12T07:31:41.508Z,11.8
2018-04-12T07:32:43.170Z,11.8
2018-04-12T07:33:44.741Z,11.7
2018-04-12T07:34:46.307Z,11.7
2018-04-12T07:35:47.904Z,11.8
2018-04-12T07:36:49.486Z,11.8
2018-04-12T07:37:51.080Z,11.7
2018-04-12T07:38:52.688Z,11.7
2018-04-12T07:39:54.551Z,11.7
2018-04-12T07:40:56.139Z,11.8
2018-04-12T07:41:57.728Z,11.8
2018-04-12T07:42:59.299Z,11.8
2018-04-12T07:44:00.891Z,11.8
2018-04-12T07:45:02.477Z,11.9
2018-04-12T07:46:04.056Z,11.8
2018-04-12T07:47:05.632Z,11.8
2018-04-12T07:48:07.204Z,11.9
2018-04-12T07:49:08.854Z,11.8
2018-04-12T07:50:10.435Z,11.9
2018-04-12T07:51:12.001Z,11.8
2018-04-12T07:52:13.575Z,11.8
2018-04-12T07:53:15.131Z,11.8
2018-04-12T07:54:16.692Z,11.9
2018-04-12T07:55:18.296Z,12.0
2018-04-12T07:56:19.864Z,11.9
2018-04-12T07:57:21.471Z,11.9
2018-04-12T07:58:23.037Z,11.9
2018-04-12T07:59:24.622Z,11.9
2018-04-12T08:00:26.186Z,12.0
2018-04-12T08:01:27.750Z,11.9
2018-04-12T08:02:29.319Z,11.9
2018-04-12T08:03:30.879Z,11.9
2018-04-12T08:04:32.443Z,11.9
2018-04-12T08:05:34.024Z,11.8
2018-04-12T08:06:35.603Z,11.9
2018-04-12T08:07:37.175Z,11.8
2018-04-12T08:08:38.758Z,11.9
2018-04-12T08:09:40.335Z,11.8
2018-04-12T08:10:41.909Z,11.8
2018-04-12T08:11:43.478Z,11.9
2018-04-12T08:12:45.051Z,11.9
2018-04-12T08:13:46.613Z,11.9
2018-04-12T08:14:48.181Z,12.0
2018-04-12T08:15:49.758Z,12.0
2018-04-12T08:16:51.321Z,11.9
2018-04-12T08:17:52.893Z,11.9
2018-04-12T08:18:54.464Z,11.9
2018-04-12T08:19:56.064Z,11.9
2018-04-12T08:20:57.628Z,11.9
2018-04-12T08:21:59.206Z,11.9
2018-04-12T08:23:00.759Z,11.9
2018-04-12T08:24:02.368Z,11.9
2018-04-12T08:25:03.954Z,11.9
2018-04-12T08:26:05.527Z,12.0
2018-04-12T08:27:07.083Z,11.9
2018-04-12T08:28:08.658Z,11.9
2018-04-12T08:29:10.285Z,11.9
2018-04-12T08:30:11.846Z,11.9
2018-04-12T08:31:13.424Z,11.9
2018-04-12T08:32:14.992Z,12.0
2018-04-12T08:33:16.551Z,12.0
2018-04-12T08:34:18.208Z,12.0
2018-04-12T08:35:19.794Z,12.1
2018-04-12T08:36:21.388Z,11.9
2018-04-12T08:37:22.975Z,11.9
2018-04-12T08:38:24.548Z,11.9
2018-04-12T08:39:26.131Z,11.9
2018-04-12T08:40:27.713Z,11.8
2018-04-12T08:41:29.291Z,11.8
2018-04-12T08:42:30.893Z,11.8
2018-04-12T08:43:32.482Z,11.9
2018-04-12T08:44:34.067Z,11.7
2018-04-12T08:45:35.633Z,11.8
2018-04-12T08:46:37.233Z,11.8
2018-04-12T08:47:38.850Z,11.8
2018-04-12T08:48:40.428Z,11.7
2018-04-12T08:49:42.031Z,11.8
2018-04-12T08:50:43.593Z,11.7
2018-04-12T08:51:45.208Z,11.5
2018-04-12T08:52:46.769Z,11.7
2018-04-12T08:53:48.357Z,11.7
2018-04-12T08:54:50.015Z,11.7
2018-04-12T08:55:51.609Z,11.8
2018-04-12T08:56:53.137Z,11.7
2018-04-12T08:57:54.903Z,11.7
2018-04-12T08:58:56.516Z,11.7
2018-04-12T08:59:58.137Z,11.7
2018-04-12T09:00:59.706Z,11.6
2018-04-12T09:02:01.281Z,11.7
2018-04-12T09:03:02.881Z,11.7
2018-04-12T09:04:04.452Z,11.7
2018-04-12T09:05:06.040Z,11.7
2018-04-12T09:06:07.602Z,11.8
2018-04-12T09:07:09.197Z,11.7
2018-04-12T09:08:10.832Z,11.7
2018-04-12T09:09:12.432Z,11.7
2018-04-12T09:10:14.009Z,11.7
2018-04-12T09:11:15.588Z,11.7
2018-04-12T09:12:17.181Z,11.7
2018-04-12T09:13:18.729Z,11.6
2018-04-12T09:14:20.317Z,11.6
2018-04-12T09:15:21.907Z,11.6
2018-04-12T09:16:23.474Z,11.6
2018-04-12T09:17:25.042Z,11.5
2018-04-12T09:18:26.611Z,11.6
2018-04-12T09:19:28.193Z,11.6
2018-04-12T09:20:29.762Z,11.6
2018-04-12T09:21:31.341Z,11.6
2018-04-12T09:22:32.955Z,11.5
2018-04-12T09:23:34.526Z,11.6
2018-04-12T09:24:36.138Z,11.5
2018-04-12T09:25:37.735Z,11.5
2018-04-12T09:26:39.352Z,11.5
2018-04-12T09:27:40.971Z,11.4
2018-04-12T09:28:42.504Z,11.5
2018-04-12T09:29:44.073Z,11.6
2018-04-12T09:30:45.639Z,11.6
2018-04-12T09:31:47.209Z,11.5
2018-04-12T09:32:48.774Z,11.6
2018-04-12T09:33:50.340Z,11.6
2018-04-12T09:34:51.921Z,11.6
2018-04-12T09:35:53.511Z,11.6
2018-04-12T09:36:55.094Z,11.5
2018-04-12T09:37:56.665Z,11.5
2018-04-12T09:38:58.229Z,11.6
2018-04-12T09:39:59.812Z,11.6
2018-04-12T09:41:01.444Z,11.5
2018-04-12T09:42:03.014Z,11.5
2018-04-12T09:43:04.583Z,11.5
2018-04-12T09:44:06.170Z,11.5
2018-04-12T09:45:07.742Z,11.5
2018-04-12T09:46:09.374Z,11.5
2018-04-12T09:47:11.062Z,11.5
2018-04-12T09:48:12.623Z,11.5
2018-04-12T09:49:14.205Z,11.5
2018-04-12T09:50:15.886Z,11.5
2018-04-12T09:51:17.459Z,11.5
2018-04-12T09:52:19.032Z,11.5
2018-04-12T09:53:20.687Z,11.6
2018-04-12T09:54:22.295Z,11.6
2018-04-12T09:55:23.880Z,11.5
2018-04-12T09:56:25.446Z,11.5
2018-04-12T09:57:27.010Z,11.6
2018-04-12T09:58:28.605Z,11.6
2018-04-12T09:59:30.465Z,11.5
2018-04-12T10:00:32.170Z,11.5
2018-04-12T10:01:33.774Z,11.5
2018-04-12T10:02:35.353Z,11.6
2018-04-12T10:03:36.937Z,11.6
2018-04-12T10:04:38.525Z,11.6
2018-04-12T10:05:40.145Z,11.5
2018-04-12T10:06:41.785Z,11.5
2018-04-12T10:07:43.346Z,11.6
2018-04-12T10:08:44.954Z,11.5
2018-04-12T10:09:46.516Z,11.5
2018-04-12T10:10:48.103Z,11.5
2018-04-12T10:11:49.760Z,11.5
2018-04-12T10:12:51.327Z,11.5
2018-04-12T10:13:52.894Z,11.5
2018-04-12T10:14:54.458Z,11.6
2018-04-12T10:15:56.148Z,11.5
2018-04-12T10:16:57.735Z,11.6
2018-04-12T10:17:59.310Z,11.5
2018-04-12T10:19:01.079Z,11.5
2018-04-12T10:20:02.836Z,11.5
2018-04-12T10:21:04.425Z,11.5
2018-04-12T10:22:06.012Z,11.5
2018-04-12T10:23:07.632Z,11.5
2018-04-12T10:24:09.224Z,11.6
2018-04-12T10:25:11.053Z,11.6
2018-04-12T10:26:12.797Z,11.6
2018-04-12T10:27:14.398Z,11.6
2018-04-12T10:28:15.982Z,11.6
2018-04-12T10:29:17.556Z,11.5
2018-04-12T10:30:19.486Z,11.6
2018-04-12T10:31:21.831Z,11.7
2018-04-12T10:32:23.983Z,11.7
2018-04-12T10:33:26.053Z,11.5
2018-04-12T10:34:27.931Z,11.7
2018-04-12T10:35:29.837Z,11.7
2018-04-12T10:36:31.806Z,11.8
2018-04-12T10:37:33.724Z,11.7
2018-04-12T10:38:35.831Z,11.7
2018-04-12T10:39:37.465Z,11.8
2018-04-12T10:40:39.015Z,11.9
2018-04-12T10:41:40.610Z,11.9
2018-04-12T10:42:42.409Z,12.0
2018-04-12T10:43:44.180Z,12.1
2018-04-12T10:44:45.761Z,12.1
2018-04-12T10:45:47.433Z,12.2
2018-04-12T10:46:49.050Z,12.2
2018-04-12T10:47:50.640Z,12.3
2018-04-12T10:48:52.476Z,12.3
2018-04-12T10:49:54.067Z,12.2
2018-04-12T10:50:55.696Z,12.2
2018-04-12T10:51:57.327Z,12.3
2018-04-12T10:52:58.859Z,12.3
2018-04-12T10:54:00.432Z,12.3
2018-04-12T10:55:02.023Z,12.4
2018-04-12T10:56:03.637Z,12.3
2018-04-12T10:57:05.233Z,12.3
2018-04-12T10:58:06.862Z,12.3
2018-04-12T10:59:08.447Z,12.3
2018-04-12T11:00:10.120Z,12.3
2018-04-12T11:01:11.694Z,12.3
2018-04-12T11:02:13.345Z,12.4
2018-04-12T11:03:14.995Z,12.4
2018-04-12T11:04:16.609Z,12.3
2018-04-12T11:05:18.203Z,12.4
2018-04-12T11:06:19.775Z,12.4
2018-04-12T11:07:21.382Z,12.4
2018-04-12T11:08:23.030Z,12.5
2018-04-12T11:09:24.640Z,12.4
2018-04-12T11:10:26.210Z,12.3
2018-04-12T11:11:27.807Z,12.4
2018-04-12T11:12:29.394Z,12.5
2018-04-12T11:13:30.992Z,12.6
2018-04-12T11:14:32.561Z,12.7
2018-04-12T11:15:34.179Z,12.7
2018-04-12T11:16:35.771Z,12.8
2018-04-12T11:17:37.351Z,12.8
2018-04-12T11:18:38.937Z,12.8
2018-04-12T11:19:40.507Z,12.8
2018-04-12T11:20:42.080Z,12.9
2018-04-12T11:21:43.720Z,12.9
2018-04-12T11:22:45.310Z,13.0
2018-04-12T11:23:46.882Z,13.0
2018-04-12T11:24:48.478Z,13.0
2018-04-12T11:25:50.063Z,13.1
2018-04-12T11:26:51.688Z,13.1
2018-04-12T11:27:53.275Z,13.0
2018-04-12T11:28:54.907Z,13.1
2018-04-12T11:29:56.485Z,13.1
2018-04-12T11:30:58.070Z,12.8
2018-04-12T11:31:59.643Z,13.0
2018-04-12T11:33:01.229Z,12.9
2018-04-12T11:34:02.825Z,12.9
2018-04-12T11:35:04.379Z,12.8
2018-04-12T11:36:05.994Z,12.7
2018-04-12T11:37:07.568Z,12.8
2018-04-12T11:38:09.159Z,12.8
2018-04-12T11:39:10.745Z,12.7
2018-04-12T11:40:13.962Z,12.7
2018-04-12T11:41:15.560Z,12.7
2018-04-12T11:42:17.136Z,12.7
2018-04-12T11:43:18.837Z,12.7
2018-04-12T11:44:20.416Z,12.7
2018-04-12T11:45:22.002Z,12.7
2018-04-12T11:46:23.574Z,12.8
2018-04-12T11:47:25.173Z,12.9
2018-04-12T11:48:26.847Z,12.8
2018-04-12T11:49:28.428Z,12.8
2018-04-12T11:50:30.041Z,12.9
2018-04-12T11:51:31.634Z,12.9
2018-04-12T11:52:33.232Z,12.7
2018-04-12T11:53:34.880Z,12.9
2018-04-12T11:54:36.467Z,12.8
2018-04-12T11:55:38.139Z,12.9
2018-04-12T11:56:39.757Z,12.9
2018-04-12T11:57:41.315Z,13.0
2018-04-12T11:58:42.909Z,13.0
2018-04-12T11:59:44.471Z,12.9
2018-04-12T12:00:46.043Z,13.0
2018-04-12T12:01:47.633Z,12.8
2018-04-12T12:02:49.261Z,12.9
2018-04-12T12:03:50.828Z,12.9
2018-04-12T12:04:52.423Z,13.0
2018-04-12T12:05:54.006Z,13.0
2018-04-12T12:06:55.615Z,12.9
2018-04-12T12:07:57.182Z,13.0
2018-04-12T12:08:58.771Z,13.0
2018-04-12T12:10:00.411Z,13.1
2018-04-12T12:11:01.971Z,12.9
2018-04-12T12:12:03.531Z,13.0
2018-04-12T12:13:05.098Z,12.8
2018-04-12T12:14:06.687Z,13.0
2018-04-12T12:15:08.332Z,13.0
2018-04-12T12:16:09.893Z,13.0
2018-04-12T12:17:11.483Z,13.0
2018-04-12T12:18:13.069Z,12.9
2018-04-12T12:19:14.670Z,13.0
2018-04-12T12:20:16.291Z,12.9
2018-04-12T12:21:17.870Z,13.0
2018-04-12T12:22:19.429Z,13.1
2018-04-12T12:23:21.031Z,13.0
2018-04-12T12:24:22.616Z,13.0
2018-04-12T12:25:24.368Z,13.0
2018-04-12T12:26:25.935Z,13.0
2018-04-12T12:27:27.521Z,13.1
2018-04-12T12:28:29.130Z,13.1
2018-04-12T12:29:31.075Z,13.0
2018-04-12T12:30:32.727Z,13.0
2018-04-12T12:31:34.423Z,13.1
2018-04-12T12:32:36.022Z,13.0
2018-04-12T12:33:37.619Z,13.0
2018-04-12T12:34:39.196Z,13.0
2018-04-12T12:35:40.880Z,13.0
2018-04-12T12:36:42.711Z,12.9
2018-04-12T12:37:44.284Z,13.0
2018-04-12T12:38:45.872Z,12.9
2018-04-12T12:39:47.516Z,13.0
2018-04-12T12:40:49.122Z,12.9
2018-04-12T12:41:50.667Z,13.0
2018-04-12T12:42:52.236Z,13.1
2018-04-12T12:43:53.824Z,13.2
2018-04-12T12:44:55.603Z,13.1
2018-04-12T12:45:57.183Z,13.1
2018-04-12T12:46:58.785Z,13.2
2018-04-12T12:48:00.373Z,13.3
2018-04-12T12:49:01.956Z,13.3
2018-04-12T12:50:03.536Z,13.2
2018-04-12T12:51:05.112Z,13.2
2018-04-12T12:52:06.706Z,13.3
2018-04-12T12:53:08.283Z,13.3
2018-04-12T12:54:09.852Z,13.2
2018-04-12T12:55:11.439Z,13.3
2018-04-12T12:56:13.015Z,13.1
2018-04-12T12:57:14.606Z,13.2
2018-04-12T12:58:16.175Z,13.2
2018-04-12T12:59:17.782Z,13.2
2018-04-12T13:00:19.346Z,13.2
2018-04-12T13:01:20.954Z,13.1
2018-04-12T13:02:22.523Z,13.2
2018-04-12T13:03:24.100Z,13.1
2018-04-12T13:04:25.722Z,13.2
2018-04-12T13:05:27.294Z,13.2
2018-04-12T13:06:28.919Z,13.2
2018-04-12T13:07:30.494Z,13.2
2018-04-12T13:08:32.060Z,13.1
2018-04-12T13:09:33.646Z,12.9
2018-04-12T13:10:35.258Z,13.0
2018-04-12T13:11:36.859Z,13.0
2018-04-12T13:12:38.470Z,12.9
2018-04-12T13:13:40.079Z,12.9
2018-04-12T13:14:41.684Z,13.1
2018-04-12T13:15:43.276Z,13.0
2018-04-12T13:16:44.862Z,13.0
2018-04-12T13:17:46.433Z,12.8
2018-04-12T13:18:48.022Z,12.8
2018-04-12T13:19:49.598Z,12.8
2018-04-12T13:20:51.194Z,12.7
2018-04-12T13:21:52.775Z,12.8
2018-04-12T13:22:54.401Z,12.8
2018-04-12T13:23:56.014Z,12.9
2018-04-12T13:24:57.641Z,12.8
2018-04-12T13:25:59.199Z,12.7
2018-04-12T13:27:00.815Z,12.6
2018-04-12T13:28:02.459Z,12.6
2018-04-12T13:29:04.112Z,12.6
2018-04-12T13:30:05.725Z,12.5
2018-04-12T13:31:07.327Z,12.5
2018-04-12T13:32:08.922Z,12.6
2018-04-12T13:33:10.679Z,12.5
2018-04-12T13:34:12.207Z,12.3
2018-04-12T13:35:13.781Z,12.4
2018-04-12T13:36:15.388Z,12.4
2018-04-12T13:37:17.105Z,12.5
2018-04-12T13:38:18.680Z,12.6
2018-04-12T13:39:20.383Z,12.7